createdAt,value
2017-12-28T00:01:39.558Z,33.70
2017-12-28T00:04:07.143Z,37.10
2017-12-28T00:06:34.712Z,40.97
2017-12-28T00:09:02.394Z,35.57
2017-12-28T00:11:29.962Z,31.47
2017-12-28T00:13:58.383Z,33.73
2017-12-28T00:16:26.044Z,35.83
2017-12-28T00:18:53.742Z,42.30
2017-12-28T00:21:21.320Z,36.53
2017-12-28T00:23:48.889Z,34.90
2017-12-28T00:26:16.486Z,41.73
2017-12-28T00:28:44.063Z,41.33
2017-12-28T00:31:11.645Z,33.47
2017-12-28T00:33:40.031Z,41.47
2017-12-28T00:36:08.521Z,35.87
2017-12-28T00:38:36.093Z,32.80
2017-12-28T00:41:03.694Z,36.70
2017-12-28T00:43:31.363Z,39.90
2017-12-28T00:45:58.974Z,39.63
2017-12-28T00:48:26.582Z,39.33
2017-12-28T00:50:55.073Z,33.30
2017-12-28T00:53:23.383Z,35.40
2017-12-28T00:55:50.975Z,41.40
2017-12-28T00:58:18.661Z,32.97
2017-12-28T01:00:46.330Z,38.87
2017-12-28T01:03:13.910Z,33.23
2017-12-28T01:05:41.486Z,36.50
2017-12-28T01:08:09.114Z,32.60
2017-12-28T01:10:36.738Z,32.90
2017-12-28T01:13:04.305Z,29.23
2017-12-28T01:15:31.878Z,37.03
2017-12-28T01:17:59.453Z,36.17
2017-12-28T01:20:27.130Z,34.30
2017-12-28T01:22:55.607Z,25.40
2017-12-28T01:25:23.186Z,32.27
2017-12-28T01:27:50.806Z,31.17
2017-12-28T01:30:18.407Z,33.43
2017-12-28T01:32:45.978Z,31.93
2017-12-28T01:35:13.545Z,31.63
2017-12-28T01:37:41.161Z,29.67
2017-12-28T01:40:08.733Z,35.40
2017-12-28T01:42:36.304Z,31.80
2017-12-28T01:45:03.994Z,25.40
2017-12-28T01:47:32.438Z,37.73
2017-12-28T01:50:00.914Z,29.10
2017-12-28T01:52:28.538Z,31.17
2017-12-28T01:54:56.106Z,29.73
2017-12-28T01:57:23.716Z,29.30
2017-12-28T01:59:51.334Z,43.20
2017-12-28T02:02:18.930Z,34.73
2017-12-28T02:04:47.523Z,30.23
2017-12-28T02:07:15.098Z,32.23
2017-12-28T02:09:42.665Z,30.67
2017-12-28T02:12:10.230Z,25.40
2017-12-28T02:14:37.803Z,25.93
2017-12-28T02:17:06.340Z,28.10
2017-12-28T02:19:33.913Z,28.93
2017-12-28T02:22:01.562Z,35.30
2017-12-28T02:24:29.277Z,33.97
2017-12-28T02:26:56.840Z,31.33
2017-12-28T02:29:24.447Z,29.03
2017-12-28T02:31:52.026Z,27.73
2017-12-28T02:34:19.638Z,28.23
2017-12-28T02:36:47.210Z,28.10
2017-12-28T02:39:14.822Z,29.10
2017-12-28T02:41:42.399Z,30.07
2017-12-28T02:44:10.006Z,29.20
2017-12-28T02:46:37.709Z,28.10
2017-12-28T02:49:06.124Z,28.40
2017-12-28T02:51:33.706Z,33.17
2017-12-28T02:54:01.389Z,26.80
2017-12-28T02:56:28.961Z,33.07
2017-12-28T02:58:57.530Z,29.67
2017-12-28T03:01:25.911Z,30.83
2017-12-28T03:03:54.402Z,32.60
2017-12-28T03:06:21.966Z,29.53
2017-12-28T03:08:49.539Z,30.60
2017-12-28T03:11:17.150Z,30.37
2017-12-28T03:13:44.726Z,30.87
2017-12-28T03:16:12.460Z,29.87
2017-12-28T03:18:40.890Z,33.83
2017-12-28T03:21:08.464Z,29.73
2017-12-28T03:23:36.965Z,34.83
2017-12-28T03:26:04.585Z,24.30
2017-12-28T03:28:32.158Z,26.93
2017-12-28T03:30:59.731Z,31.83
2017-12-28T03:33:28.134Z,31.13
2017-12-28T03:35:56.233Z,34.93
2017-12-28T03:38:24.610Z,29.47
2017-12-28T03:40:52.182Z,33.80
2017-12-28T03:43:19.766Z,25.60
2017-12-28T03:45:47.340Z,27.40
2017-12-28T03:48:14.918Z,29.20
2017-12-28T03:50:43.301Z,30.17
2017-12-28T03:53:11.896Z,32.23
2017-12-28T03:55:39.506Z,27.13
2017-12-28T03:58:07.074Z,33.17
2017-12-28T04:00:35.616Z,31.97
2017-12-28T04:03:03.186Z,30.67
2017-12-28T04:05:30.794Z,28.77
2017-12-28T04:07:59.311Z,31.67
2017-12-28T04:10:26.886Z,37.33
2017-12-28T04:12:54.455Z,31.17
2017-12-28T04:15:22.022Z,32.43
2017-12-28T04:17:49.639Z,31.53
2017-12-28T04:20:17.228Z,33.70
2017-12-28T04:22:44.794Z,33.10
2017-12-28T04:25:12.402Z,32.20
2017-12-28T04:27:39.977Z,33.80
2017-12-28T04:30:07.580Z,30.47
2017-12-28T04:32:35.247Z,25.83
2017-12-28T04:35:02.849Z,30.77
2017-12-28T04:37:30.427Z,30.73
2017-12-28T04:39:58.002Z,38.63
2017-12-28T04:42:25.625Z,29.37
2017-12-28T04:44:53.202Z,29.70
2017-12-28T04:47:20.846Z,25.23
2017-12-28T04:49:48.518Z,33.23
2017-12-28T04:52:16.098Z,26.40
2017-12-28T04:54:43.669Z,31.10
2017-12-28T04:57:11.247Z,33.20
2017-12-28T04:59:39.623Z,30.37
2017-12-28T05:02:08.158Z,31.37
2017-12-28T05:04:35.847Z,31.27
2017-12-28T05:07:03.446Z,34.27
2017-12-28T05:09:31.868Z,34.45
2017-12-28T05:11:59.445Z,42.77
2017-12-28T05:14:27.094Z,42.57
2017-12-28T05:16:54.752Z,33.13
2017-12-28T05:19:23.225Z,39.03
2017-12-28T05:21:51.650Z,33.43
2017-12-28T05:24:20.150Z,33.03
2017-12-28T05:26:48.514Z,37.23
2017-12-28T05:29:16.093Z,37.63
2017-12-28T05:31:43.666Z,32.63
2017-12-28T05:34:11.233Z,36.10
2017-12-28T05:36:38.894Z,40.03
2017-12-28T05:39:07.242Z,32.37
2017-12-28T05:41:34.899Z,31.13
2017-12-28T05:44:02.506Z,32.87
2017-12-28T05:46:30.087Z,37.23
2017-12-28T05:48:58.486Z,35.63
2017-12-28T05:51:26.060Z,29.70
2017-12-28T05:53:53.824Z,30.93
2017-12-28T05:56:21.449Z,34.73
2017-12-28T05:58:49.071Z,38.60
2017-12-28T06:01:16.683Z,27.10
2017-12-28T06:03:44.253Z,39.90
2017-12-28T06:06:11.876Z,32.47
2017-12-28T06:08:39.519Z,26.10
2017-12-28T06:11:07.093Z,32.27
2017-12-28T06:13:34.686Z,41.50
2017-12-28T06:16:02.353Z,32.60
2017-12-28T06:18:29.934Z,35.63
2017-12-28T06:20:57.567Z,30.33
2017-12-28T06:23:25.142Z,33.13
2017-12-28T06:25:53.618Z,29.47
2017-12-28T06:28:21.282Z,33.00
2017-12-28T06:30:49.773Z,27.53
2017-12-28T06:33:18.162Z,35.07
2017-12-28T06:35:46.830Z,33.10
2017-12-28T06:38:15.474Z,37.40
2017-12-28T06:40:43.074Z,29.57
2017-12-28T06:43:10.645Z,32.50
2017-12-28T06:45:38.227Z,33.67
2017-12-28T06:48:05.857Z,31.63
2017-12-28T06:50:34.393Z,32.30
2017-12-28T06:53:02.002Z,35.53
2017-12-28T06:55:29.691Z,30.90
2017-12-28T06:57:57.269Z,37.63
2017-12-28T07:00:24.847Z,33.47
2017-12-28T07:02:52.418Z,37.47
2017-12-28T07:05:19.985Z,34.13
2017-12-28T07:07:49.050Z,36.80
2017-12-28T07:10:17.341Z,38.00
2017-12-28T07:12:45.802Z,36.87
2017-12-28T07:15:14.323Z,30.90
2017-12-28T07:17:42.746Z,32.13
2017-12-28T07:20:11.254Z,26.27
2017-12-28T07:22:39.682Z,30.27
2017-12-28T07:25:08.162Z,34.50
2017-12-28T07:27:35.737Z,40.60
2017-12-28T07:30:03.310Z,33.67
2017-12-28T07:32:30.923Z,34.07
2017-12-28T07:34:58.537Z,24.43
2017-12-28T07:37:26.196Z,32.23
2017-12-28T07:39:53.769Z,30.60
2017-12-28T07:42:22.346Z,35.93
2017-12-28T07:44:50.866Z,38.00
2017-12-28T07:47:19.315Z,29.10
2017-12-28T07:49:47.626Z,37.83
2017-12-28T07:52:16.117Z,39.83
2017-12-28T07:54:44.504Z,42.40
2017-12-28T07:57:12.929Z,30.93
2017-12-28T07:59:40.545Z,37.23
2017-12-28T08:02:08.117Z,35.47
2017-12-28T08:04:35.690Z,31.87
2017-12-28T08:07:03.267Z,40.00
2017-12-28T08:09:31.654Z,36.37
2017-12-28T08:12:00.288Z,30.97
2017-12-28T08:14:27.861Z,33.03
2017-12-28T08:16:55.436Z,34.33
2017-12-28T08:19:23.026Z,40.53
2017-12-28T08:21:51.540Z,40.87
2017-12-28T08:24:19.909Z,33.37
2017-12-28T08:26:48.315Z,33.57
2017-12-28T08:29:15.898Z,27.57
2017-12-28T08:31:43.469Z,35.73
2017-12-28T08:34:11.835Z,33.67
2017-12-28T08:36:40.204Z,32.50
2017-12-28T08:39:07.774Z,31.17
2017-12-28T08:41:36.400Z,31.40
2017-12-28T08:44:03.975Z,29.97
2017-12-28T08:46:32.347Z,38.90
2017-12-28T08:49:00.925Z,30.60
2017-12-28T08:51:28.545Z,31.50
2017-12-28T08:53:57.086Z,33.00
2017-12-28T08:56:24.660Z,31.33
2017-12-28T08:58:53.066Z,36.60
2017-12-28T09:01:20.639Z,34.30
2017-12-28T09:03:49.140Z,32.43
2017-12-28T09:06:17.645Z,32.67
2017-12-28T09:08:45.301Z,36.80
2017-12-28T09:11:12.877Z,36.23
2017-12-28T09:13:41.263Z,34.10
2017-12-28T09:16:08.840Z,33.53
2017-12-28T09:18:36.419Z,35.60
2017-12-28T09:21:04.827Z,36.67
2017-12-28T09:23:33.298Z,36.13
2017-12-28T09:26:00.939Z,36.10
2017-12-28T09:28:29.361Z,33.07
2017-12-28T09:30:57.805Z,36.63
2017-12-28T09:33:26.362Z,32.13
2017-12-28T09:35:54.720Z,30.40
2017-12-28T09:38:23.139Z,34.40
2017-12-28T09:40:51.714Z,32.35
2017-12-28T09:43:20.104Z,32.77
2017-12-28T09:45:47.716Z,34.70
2017-12-28T09:48:16.085Z,27.93
2017-12-28T09:50:43.710Z,32.87
2017-12-28T09:53:11.354Z,26.93
2017-12-28T09:55:39.019Z,26.27
2017-12-28T09:58:07.289Z,27.97
2017-12-28T10:00:35.799Z,28.23
2017-12-28T10:03:04.155Z,25.33
2017-12-28T10:05:31.732Z,24.93
2017-12-28T10:07:59.302Z,29.03
2017-12-28T10:10:26.911Z,22.80
2017-12-28T10:12:54.675Z,24.20
2017-12-28T10:15:22.256Z,24.50
2017-12-28T10:17:49.874Z,23.63
2017-12-28T10:20:17.435Z,21.80
2017-12-28T10:22:45.826Z,19.87
2017-12-28T10:25:13.394Z,21.90
2017-12-28T10:27:41.004Z,22.30
2017-12-28T10:30:09.473Z,17.63
2017-12-28T10:32:37.121Z,18.80
2017-12-28T10:35:04.699Z,20.63
2017-12-28T10:37:32.271Z,22.20
2017-12-28T10:39:59.985Z,14.73
2017-12-28T10:42:27.559Z,22.77
2017-12-28T10:44:55.927Z,20.23
2017-12-28T10:47:23.494Z,19.87
2017-12-28T10:49:52.026Z,14.13
2017-12-28T10:52:19.596Z,13.47
2017-12-28T10:54:47.167Z,13.03
2017-12-28T10:57:14.729Z,12.77
2017-12-28T10:59:42.302Z,13.27
2017-12-28T11:02:09.871Z,15.03
2017-12-28T11:04:37.470Z,10.60
2017-12-28T11:07:05.076Z,10.87
2017-12-28T11:09:32.664Z,10.03
2017-12-28T11:12:00.246Z,9.33
2017-12-28T11:14:28.431Z,9.60
2017-12-28T11:16:55.994Z,10.93
2017-12-28T11:19:23.554Z,9.60
2017-12-28T11:21:51.114Z,9.83
2017-12-28T11:24:18.675Z,5.83
2017-12-28T11:26:46.239Z,7.50
2017-12-28T11:29:13.808Z,6.97
2017-12-28T11:31:41.458Z,7.07
2017-12-28T11:34:09.968Z,6.90
2017-12-28T11:36:37.569Z,7.83
2017-12-28T11:39:06.002Z,9.03
2017-12-28T11:41:33.604Z,6.70
2017-12-28T11:44:01.271Z,6.13
2017-12-28T11:46:28.875Z,9.33
2017-12-28T11:48:56.443Z,14.80
2017-12-28T11:51:24.010Z,6.70
2017-12-28T11:54:07.315Z,6.97
2017-12-28T11:56:39.725Z,8.23
2017-12-28T11:59:12.983Z,7.57
2017-12-28T12:01:47.611Z,8.67
2017-12-28T12:04:21.835Z,6.30
2017-12-28T12:06:55.249Z,7.63
2017-12-28T12:09:23.737Z,11.03
2017-12-28T12:11:52.231Z,8.50
2017-12-28T12:14:19.799Z,11.13
2017-12-28T12:16:47.358Z,5.10
2017-12-28T12:19:14.942Z,6.47
2017-12-28T12:21:43.372Z,7.30
2017-12-28T12:24:11.971Z,14.93
2017-12-28T12:26:40.442Z,10.50
2017-12-28T12:29:08.054Z,7.10
2017-12-28T12:31:35.718Z,5.40
2017-12-28T12:34:03.287Z,5.30
2017-12-28T12:36:30.938Z,4.67
2017-12-28T12:38:58.534Z,7.93
2017-12-28T12:41:26.134Z,5.80
2017-12-28T12:43:53.961Z,8.87
2017-12-28T12:46:21.525Z,5.97
2017-12-28T12:48:50.015Z,5.73
2017-12-28T12:51:18.356Z,7.47
2017-12-28T12:53:46.693Z,8.65
2017-12-28T12:56:15.092Z,10.80
2017-12-28T12:58:42.671Z,9.40
2017-12-28T13:01:11.195Z,9.43
2017-12-28T13:03:38.765Z,10.03
2017-12-28T13:06:07.259Z,6.83
2017-12-28T13:08:34.824Z,12.80
2017-12-28T13:11:02.428Z,10.33
2017-12-28T13:13:30.036Z,10.60
2017-12-28T13:15:57.603Z,10.43
2017-12-28T13:18:25.215Z,8.83
2017-12-28T13:20:53.556Z,9.87
2017-12-28T13:23:21.127Z,11.50
2017-12-28T13:25:48.698Z,6.60
2017-12-28T13:28:17.224Z,11.97
2017-12-28T13:30:44.853Z,7.30
2017-12-28T13:33:12.478Z,7.13
2017-12-28T13:35:40.046Z,9.20
2017-12-28T13:38:07.618Z,10.33
2017-12-28T13:40:36.223Z,10.80
2017-12-28T13:43:03.791Z,12.03
2017-12-28T13:45:31.398Z,8.20
2017-12-28T13:47:59.009Z,7.40
2017-12-28T13:50:26.614Z,9.87
2017-12-28T13:52:54.233Z,11.47
2017-12-28T13:55:22.667Z,10.80
2017-12-28T13:57:50.237Z,11.27
2017-12-28T14:00:17.873Z,9.33
2017-12-28T14:02:45.446Z,13.03
2017-12-28T14:05:13.011Z,7.87
2017-12-28T14:07:40.576Z,11.73
2017-12-28T14:10:09.119Z,9.13
2017-12-28T14:12:36.729Z,6.07
2017-12-28T14:15:05.088Z,12.13
2017-12-28T14:17:32.702Z,7.40
2017-12-28T14:20:01.051Z,7.27
2017-12-28T14:22:28.631Z,17.13
2017-12-28T14:24:56.190Z,4.60
2017-12-28T14:27:23.759Z,10.10
2017-12-28T14:29:51.386Z,10.53
2017-12-28T14:32:19.046Z,8.80
2017-12-28T14:34:46.663Z,11.13
2017-12-28T14:37:14.238Z,23.03
2017-12-28T14:39:42.590Z,14.23
2017-12-28T14:42:10.192Z,17.80
2017-12-28T14:44:38.696Z,8.70
2017-12-28T14:47:06.298Z,7.73
2017-12-28T14:49:33.863Z,11.67
2017-12-28T14:52:01.431Z,15.57
2017-12-28T14:54:29.887Z,9.97
2017-12-28T14:56:57.450Z,8.00
2017-12-28T14:59:25.016Z,11.83
2017-12-28T15:01:52.610Z,9.70
2017-12-28T15:04:20.179Z,13.40
2017-12-28T15:06:47.790Z,17.17
2017-12-28T15:09:16.183Z,12.43
2017-12-28T15:11:43.747Z,16.90
2017-12-28T15:14:12.243Z,10.83
2017-12-28T15:16:39.822Z,22.07
2017-12-28T15:19:07.397Z,10.57
2017-12-28T15:21:34.970Z,16.50
2017-12-28T15:24:02.542Z,9.73
2017-12-28T15:26:30.105Z,7.87
2017-12-28T15:28:57.679Z,14.03
2017-12-28T15:31:25.250Z,16.17
2017-12-28T15:33:52.815Z,12.43
2017-12-28T15:36:20.388Z,10.60
2017-12-28T15:38:49.948Z,18.77
2017-12-28T15:41:17.525Z,11.97
2017-12-28T15:43:45.095Z,10.93
2017-12-28T15:46:12.654Z,9.87
2017-12-28T15:48:40.230Z,46.67
2017-12-28T15:51:08.598Z,10.90
2017-12-28T15:53:36.171Z,12.90
2017-12-28T15:56:03.750Z,15.20
2017-12-28T15:58:31.344Z,11.67
2017-12-28T16:00:58.974Z,14.57
2017-12-28T16:03:26.569Z,6.83
2017-12-28T16:05:54.166Z,12.30
2017-12-28T16:08:21.863Z,10.53
2017-12-28T16:10:49.438Z,12.90
2017-12-28T16:13:17.006Z,11.40
2017-12-28T16:15:51.412Z,6.67
2017-12-28T16:18:19.013Z,21.83
2017-12-28T16:20:47.547Z,8.67
2017-12-28T16:23:15.220Z,10.20
2017-12-28T16:25:42.805Z,5.37
2017-12-28T16:28:10.436Z,9.60
2017-12-28T16:30:38.798Z,12.30
2017-12-28T16:33:07.114Z,21.33
2017-12-28T16:35:34.683Z,10.10
2017-12-28T16:38:02.259Z,15.70
2017-12-28T16:40:29.830Z,10.83
2017-12-28T16:42:57.406Z,14.00
2017-12-28T16:45:24.974Z,18.57
2017-12-28T16:47:52.529Z,7.00
2017-12-28T16:50:20.142Z,18.63
2017-12-28T16:52:47.715Z,13.77
2017-12-28T16:55:15.318Z,11.17
2017-12-28T16:57:42.918Z,9.90
2017-12-28T17:00:12.228Z,16.37
2017-12-28T17:02:40.490Z,5.87
2017-12-28T17:05:08.092Z,9.93
2017-12-28T17:07:36.425Z,12.87
2017-12-28T17:10:04.895Z,11.97
2017-12-28T17:12:33.509Z,19.70
2017-12-28T17:15:01.119Z,17.70
2017-12-28T17:17:28.687Z,11.13
2017-12-28T17:19:56.278Z,19.00
2017-12-28T17:22:24.753Z,14.67
2017-12-28T17:24:53.098Z,16.73
2017-12-28T17:27:20.703Z,12.97
2017-12-28T17:29:48.278Z,10.40
2017-12-28T17:32:16.717Z,12.47
2017-12-28T17:34:44.357Z,24.87
2017-12-28T17:37:12.779Z,15.27
2017-12-28T17:39:41.259Z,14.60
2017-12-28T17:42:09.526Z,8.00
2017-12-28T17:44:38.023Z,13.73
2017-12-28T17:47:06.541Z,13.63
2017-12-28T17:49:34.112Z,20.87
2017-12-28T17:52:01.720Z,14.10
2017-12-28T17:54:29.286Z,16.77
2017-12-28T17:56:56.886Z,17.77
2017-12-28T17:59:24.451Z,10.50
2017-12-28T18:01:52.022Z,16.33
2017-12-28T18:04:19.691Z,16.07
2017-12-28T18:06:48.315Z,12.40
2017-12-28T18:09:15.889Z,16.83
2017-12-28T18:11:43.547Z,9.33
2017-12-28T18:14:11.115Z,9.30
2017-12-28T18:16:38.709Z,10.77
2017-12-28T18:19:06.342Z,15.60
2017-12-28T18:21:33.922Z,15.30
2017-12-28T18:24:01.486Z,13.53
2017-12-28T18:26:29.661Z,12.00
2017-12-28T18:28:57.232Z,6.90
2017-12-28T18:31:24.800Z,6.90
2017-12-28T18:33:52.370Z,17.20
2017-12-28T18:36:19.939Z,10.60
2017-12-28T18:38:47.501Z,8.67
2017-12-28T18:41:15.230Z,13.93
2017-12-28T18:43:42.809Z,14.03
2017-12-28T18:46:10.374Z,10.60
2017-12-28T18:48:37.934Z,21.57
2017-12-28T18:51:05.503Z,10.33
2017-12-28T18:53:33.134Z,7.47
2017-12-28T18:56:00.813Z,8.00
2017-12-28T18:58:28.375Z,10.13
2017-12-28T19:00:55.945Z,10.63
2017-12-28T19:03:23.511Z,11.90
2017-12-28T19:05:51.114Z,11.73
2017-12-28T19:08:18.704Z,7.90
2017-12-28T19:10:46.326Z,15.53
2017-12-28T19:13:14.802Z,11.17
2017-12-28T19:15:42.373Z,22.50
2017-12-28T19:18:09.951Z,10.50
2017-12-28T19:20:37.599Z,10.52
2017-12-28T19:23:05.177Z,13.43
2017-12-28T19:25:32.750Z,12.57
2017-12-28T19:28:00.440Z,11.80
2017-12-28T19:30:28.043Z,11.90
2017-12-28T19:32:55.641Z,13.23
2017-12-28T19:35:23.270Z,10.50
2017-12-28T19:37:50.837Z,10.30
2017-12-28T19:40:18.398Z,6.93
2017-12-28T19:42:45.967Z,4.90
2017-12-28T19:45:13.534Z,12.00
2017-12-28T19:47:41.094Z,9.33
2017-12-28T19:50:08.690Z,12.63
2017-12-28T19:52:36.254Z,14.87
2017-12-28T19:55:03.818Z,13.07
2017-12-28T19:57:31.418Z,9.47
2017-12-28T19:59:58.994Z,7.13
2017-12-28T20:02:26.605Z,8.63
2017-12-28T20:04:54.194Z,11.60
2017-12-28T20:07:21.867Z,16.07
2017-12-28T20:09:49.463Z,19.70
2017-12-28T20:12:17.026Z,8.97
2017-12-28T20:14:44.651Z,17.73
2017-12-28T20:17:12.364Z,13.13
2017-12-28T20:19:39.934Z,11.13
2017-12-28T20:22:07.534Z,8.55
2017-12-28T20:24:35.109Z,10.50
2017-12-28T20:27:02.690Z,13.65
2017-12-28T20:29:30.354Z,9.97
2017-12-28T20:31:58.010Z,11.07
2017-12-28T20:34:25.634Z,6.97
2017-12-28T20:36:53.202Z,11.47
2017-12-28T20:39:20.770Z,10.77
2017-12-28T20:41:48.330Z,8.93
2017-12-28T20:44:15.890Z,5.37
2017-12-28T20:46:44.459Z,8.40
2017-12-28T20:49:12.022Z,8.20
2017-12-28T20:51:39.582Z,8.57
2017-12-28T20:54:07.186Z,11.10
2017-12-28T20:56:34.751Z,8.37
2017-12-28T20:59:02.327Z,12.50
2017-12-28T21:01:30.379Z,10.90
2017-12-28T21:03:58.034Z,9.10
2017-12-28T21:06:25.609Z,10.03
2017-12-28T21:08:53.267Z,12.07
2017-12-28T21:11:20.835Z,7.50
2017-12-28T21:13:48.402Z,7.60
2017-12-28T21:16:15.966Z,12.83
2017-12-28T21:18:43.535Z,12.00
2017-12-28T21:21:11.103Z,11.10
2017-12-28T21:23:38.730Z,11.67
2017-12-28T21:26:06.426Z,11.83
2017-12-28T21:28:34.086Z,10.30
2017-12-28T21:31:01.714Z,10.10
2017-12-28T21:33:29.277Z,7.60
2017-12-28T21:35:56.854Z,11.03
2017-12-28T21:38:24.431Z,9.67
2017-12-28T21:40:51.998Z,7.77
2017-12-28T21:43:19.564Z,5.90
2017-12-28T21:45:47.187Z,10.10
2017-12-28T21:48:14.755Z,15.33
2017-12-28T21:50:42.411Z,7.30
2017-12-28T21:53:09.974Z,11.80
2017-12-28T21:55:37.562Z,30.13
2017-12-28T21:58:05.133Z,13.27
2017-12-28T22:00:32.704Z,10.43
2017-12-28T22:03:00.326Z,9.57
2017-12-28T22:05:27.902Z,16.80
2017-12-28T22:07:55.570Z,11.27
2017-12-28T22:10:23.164Z,8.77
2017-12-28T22:12:50.726Z,18.00
2017-12-28T22:15:18.326Z,10.80
2017-12-28T22:17:45.894Z,7.30
2017-12-28T22:20:13.900Z,8.80
2017-12-28T22:22:41.476Z,10.17
2017-12-28T22:25:09.899Z,8.67
2017-12-28T22:27:37.475Z,15.00
2017-12-28T22:30:05.046Z,12.43
2017-12-28T22:32:32.609Z,10.07
2017-12-28T22:35:00.178Z,14.60
2017-12-28T22:37:27.835Z,13.40
2017-12-28T22:39:55.410Z,13.93
2017-12-28T22:42:23.029Z,13.73
2017-12-28T22:44:50.688Z,13.67
2017-12-28T22:47:18.266Z,11.43
2017-12-28T22:49:45.843Z,9.80
2017-12-28T22:52:13.530Z,18.13
2017-12-28T22:54:41.189Z,13.47
2017-12-28T22:57:08.753Z,13.30
2017-12-28T22:59:36.320Z,11.77
2017-12-28T23:02:03.886Z,7.13
2017-12-28T23:04:31.449Z,10.40
2017-12-28T23:06:59.059Z,18.60
2017-12-28T23:09:26.622Z,13.60
2017-12-28T23:11:55.147Z,19.00
2017-12-28T23:14:23.501Z,10.10
2017-12-28T23:16:51.127Z,8.20
2017-12-28T23:19:18.694Z,13.00
2017-12-28T23:21:46.258Z,10.20
2017-12-28T23:24:13.838Z,20.70
2017-12-28T23:26:42.287Z,10.23
2017-12-28T23:29:09.858Z,16.77
2017-12-28T23:31:37.509Z,13.30
2017-12-28T23:34:05.079Z,15.80
2017-12-28T23:36:32.650Z,21.17
2017-12-28T23:39:00.223Z,12.93
2017-12-28T23:41:28.780Z,12.90
2017-12-28T23:43:56.349Z,14.43
2017-12-28T23:46:24.660Z,17.20
2017-12-28T23:48:52.328Z,15.47
2017-12-28T23:51:19.889Z,9.40
2017-12-28T23:53:47.467Z,16.87
2017-12-28T23:56:15.071Z,13.17
2017-12-28T23:58:42.638Z,18.40
